Weather Data

Pearl Creek Farm: 8878 N Farm Road 75, Walnut Grove MO 65770

<== Previous Day (Monday 03 Apr 2017) | Next Day (Wednesday 05 Apr 2017) ==>

Summary Precipitation Data For Tuesday 04 April 2017

ElementValueUnits
Precipitation0"
Notes(none)
SourcePearl Creek Farm

Summary Temperature Data For Tuesday 04 April 2017

ElementValueUnits
High Temperature71 oF
Low Temperature47 oF
Average Temperature57 oF
High Humidity93 %
Low Humidity55 %
Average Humidity82 %
SourceSpringfield-Branson National Airport (SGF)

Detail Temperature Data For Tuesday 04 April 2017

Date / TimeTemp (F)RH (%)Dew Pt (F)Report Date / TimeSource
2017-04-04 18:52:00 65 63 52.0 2017-12-29 17:00:26.17417 Springfield-Branson National Airport (SGF)
2017-04-04 19:47:00 57 87 53.0 2017-12-29 17:00:26.17417 Springfield-Branson National Airport (SGF)
2017-04-04 20:52:00 55 93 53.0 2017-12-29 17:00:26.17417 Springfield-Branson National Airport (SGF)
2017-04-04 00:52:00 47 93 45.0 2017-12-29 17:00:26.17417 Springfield-Branson National Airport (SGF)
2017-04-04 01:52:00 48 89 45.0 2017-12-29 17:00:26.17417 Springfield-Branson National Airport (SGF)
2017-04-04 05:52:00 50 86 46.0 2017-12-29 17:00:26.17417 Springfield-Branson National Airport (SGF)
2017-04-04 06:52:00 53 86 49.0 2017-12-29 17:00:26.17417 Springfield-Branson National Airport (SGF)
2017-04-04 07:52:00 54 87 50.0 2017-12-29 17:00:26.17417 Springfield-Branson National Airport (SGF)
2017-04-04 08:52:00 54 90 51.0 2017-12-29 17:00:26.17417 Springfield-Branson National Airport (SGF)
2017-04-04 09:52:00 54 90 51.0 2017-12-29 17:00:26.17417 Springfield-Branson National Airport (SGF)
2017-04-04 10:52:00 56 84 51.0 2017-12-29 17:00:26.17417 Springfield-Branson National Airport (SGF)
2017-04-04 11:52:00 57 83 52.0 2017-12-29 17:00:26.17417 Springfield-Branson National Airport (SGF)
2017-04-04 12:52:00 61 75 53.0 2017-12-29 17:00:26.17417 Springfield-Branson National Airport (SGF)
2017-04-04 13:52:00 65 63 52.0 2017-12-29 17:00:26.17417 Springfield-Branson National Airport (SGF)
2017-04-04 14:52:00 67 61 53.0 2017-12-29 17:00:26.17417 Springfield-Branson National Airport (SGF)
2017-04-04 15:52:00 71 55 54.0 2017-12-29 17:00:26.17417 Springfield-Branson National Airport (SGF)
2017-04-04 16:52:00 69 59 54.0 2017-12-29 17:00:26.17417 Springfield-Branson National Airport (SGF)
2017-04-04 17:52:00 67 61 53.0 2017-12-29 17:00:26.17417 Springfield-Branson National Airport (SGF)
2017-04-04 21:52:00 55 93 53.0 2017-12-29 17:00:26.17417 Springfield-Branson National Airport (SGF)
2017-04-04 22:52:00 57 93 55.0 2017-12-29 17:00:26.17417 Springfield-Branson National Airport (SGF)
2017-04-04 23:52:00 57 87 53.0 2017-12-29 17:00:26.17417 Springfield-Branson National Airport (SGF)
2017-04-04 02:52:00 48 93 46.0 2017-12-29 17:00:26.17417 Springfield-Branson National Airport (SGF)
2017-04-04 03:52:00 48 93 46.0 2017-12-29 17:00:26.17417 Springfield-Branson National Airport (SGF)
2017-04-04 04:52:00 47 93 45.0 2017-12-29 17:00:26.17417 Springfield-Branson National Airport (SGF)

A total of 24 rows are displayed.